createdAt,value
2022-12-26T00:01:06.022Z,47.15
2022-12-26T00:06:00.756Z,47.42
2022-12-26T00:08:28.127Z,45.63
2022-12-26T00:10:55.592Z,47.45
2022-12-26T00:13:40.264Z,45.67
2022-12-26T00:16:14.449Z,43.97
2022-12-26T00:18:42.142Z,50.00
2022-12-26T00:21:11.441Z,46.78
2022-12-26T00:23:41.203Z,52.30
2022-12-26T00:26:19.849Z,49.40
2022-12-26T00:28:47.548Z,49.90
2022-12-26T00:31:18.424Z,56.78
2022-12-26T00:33:46.370Z,46.33
2022-12-26T00:36:29.673Z,53.15
2022-12-26T00:38:58.764Z,49.63
2022-12-26T00:41:26.485Z,52.90
2022-12-26T00:43:54.023Z,46.83
2022-12-26T00:46:26.138Z,51.30
2022-12-26T00:48:54.024Z,50.35
2022-12-26T00:51:21.734Z,51.42
2022-12-26T00:53:49.486Z,54.80
2022-12-26T00:56:16.890Z,47.85
2022-12-26T00:58:44.489Z,51.63
2022-12-26T01:01:22.104Z,53.92
2022-12-26T01:03:50.230Z,61.65
2022-12-26T01:06:17.873Z,57.35
2022-12-26T01:08:45.246Z,56.45
2022-12-26T01:11:15.640Z,63.20
2022-12-26T01:13:43.310Z,63.67
2022-12-26T01:16:10.814Z,61.00
2022-12-26T01:18:38.244Z,65.40
2022-12-26T01:21:08.517Z,61.10
2022-12-26T01:23:36.133Z,58.22
2022-12-26T01:26:16.350Z,61.38
2022-12-26T01:28:49.210Z,61.60
2022-12-26T01:31:16.866Z,60.45
2022-12-26T01:33:44.597Z,57.65
2022-12-26T01:36:12.384Z,58.58
2022-12-26T01:38:39.798Z,62.65
2022-12-26T01:41:22.266Z,59.20
2022-12-26T01:43:59.804Z,60.38
2022-12-26T01:46:39.386Z,64.97
2022-12-26T01:49:15.367Z,62.53
2022-12-26T01:51:47.437Z,55.65
2022-12-26T01:54:40.220Z,61.45
2022-12-26T01:57:06.764Z,62.92
2022-12-26T01:59:37.424Z,67.78
2022-12-26T02:02:05.742Z,61.55
2022-12-26T02:04:57.757Z,61.40
2022-12-26T02:07:26.584Z,65.47
2022-12-26T02:09:54.179Z,68.18
2022-12-26T02:12:35.325Z,62.67
2022-12-26T02:15:09.179Z,62.75
2022-12-26T02:17:37.844Z,57.00
2022-12-26T02:20:27.783Z,59.15
2022-12-26T02:23:32.192Z,60.70
2022-12-26T02:26:18.007Z,64.22
2022-12-26T02:29:03.809Z,60.58
2022-12-26T02:32:03.386Z,62.38
2022-12-26T02:34:39.246Z,55.75
2022-12-26T02:37:38.949Z,56.75
2022-12-26T02:40:24.972Z,58.30
2022-12-26T02:43:00.112Z,60.22
2022-12-26T02:46:05.023Z,60.83
2022-12-26T02:49:07.952Z,58.38
2022-12-26T02:52:15.646Z,54.13
2022-12-26T02:55:01.594Z,55.03
2022-12-26T02:57:59.948Z,58.08
2022-12-26T03:00:46.835Z,53.70
2022-12-26T03:03:38.279Z,57.90
2022-12-26T03:06:30.259Z,57.33
2022-12-26T03:09:18.771Z,56.60
2022-12-26T03:12:10.316Z,58.85
2022-12-26T03:15:03.111Z,59.97
2022-12-26T03:17:36.583Z,57.67
2022-12-26T03:20:10.340Z,57.25
2022-12-26T03:22:46.710Z,62.28
2022-12-26T03:26:01.152Z,61.03
2022-12-26T03:28:28.726Z,58.38
2022-12-26T03:30:59.730Z,60.33
2022-12-26T03:33:52.218Z,64.67
2022-12-26T03:36:25.900Z,56.67
2022-12-26T03:39:19.376Z,63.45
2022-12-26T03:42:21.435Z,60.38
2022-12-26T03:45:16.840Z,67.50
2022-12-26T03:48:24.301Z,64.15
2022-12-26T03:51:20.757Z,63.20
2022-12-26T03:54:14.320Z,65.18
2022-12-26T03:57:06.540Z,66.90
2022-12-26T04:00:08.556Z,65.65
2022-12-26T04:02:59.951Z,65.78
2022-12-26T04:05:46.972Z,69.70
2022-12-26T04:08:39.928Z,70.45
2022-12-26T04:11:33.821Z,68.00
2022-12-26T04:14:30.090Z,75.00
2022-12-26T04:17:35.632Z,65.72
2022-12-26T04:20:16.565Z,66.03
2022-12-26T04:23:09.632Z,71.45
2022-12-26T04:26:16.678Z,66.63
2022-12-26T04:29:03.068Z,65.88
2022-12-26T04:31:55.007Z,65.20
2022-12-26T04:34:59.606Z,65.88
2022-12-26T04:37:47.646Z,63.55
2022-12-26T04:40:39.351Z,62.65
2022-12-26T04:43:48.857Z,58.90
2022-12-26T04:46:16.949Z,55.10
2022-12-26T04:49:06.173Z,57.90
2022-12-26T04:51:34.453Z,55.58
2022-12-26T04:54:02.068Z,51.90
2022-12-26T04:56:29.533Z,53.85
2022-12-26T04:58:57.076Z,49.88
2022-12-26T05:01:43.360Z,55.72
2022-12-26T05:04:33.823Z,53.70
2022-12-26T05:07:21.831Z,59.15
2022-12-26T05:09:51.602Z,52.40
2022-12-26T05:12:19.654Z,54.78
2022-12-26T05:14:47.505Z,56.58
2022-12-26T05:17:33.754Z,52.08
2022-12-26T05:20:19.647Z,52.70
2022-12-26T05:23:06.167Z,55.05
2022-12-26T05:25:58.415Z,60.13
2022-12-26T05:28:44.112Z,48.33
2022-12-26T05:31:16.695Z,55.28
2022-12-26T05:34:03.138Z,58.38
2022-12-26T05:36:35.926Z,63.35
2022-12-26T05:39:04.578Z,77.93
2022-12-26T05:41:31.990Z,68.57
2022-12-26T05:43:59.454Z,74.15
2022-12-26T05:46:27.572Z,72.03
2022-12-26T05:48:55.012Z,75.93
2022-12-26T05:51:22.424Z,68.85
2022-12-26T05:53:50.673Z,78.07
2022-12-26T05:56:18.938Z,73.40
2022-12-26T05:58:47.128Z,77.32
2022-12-26T06:01:19.931Z,81.32
2022-12-26T06:03:49.678Z,77.85
2022-12-26T06:06:18.461Z,92.18
2022-12-26T06:08:51.043Z,86.57
2022-12-26T06:11:19.474Z,82.72
2022-12-26T06:13:46.962Z,90.20
2022-12-26T06:16:16.954Z,93.22
2022-12-26T06:18:44.708Z,102.43
2022-12-26T06:21:17.076Z,108.10
2022-12-26T06:23:44.663Z,99.82
2022-12-26T06:26:12.964Z,95.18
2022-12-26T06:28:42.137Z,100.45
2022-12-26T06:31:16.139Z,106.90
2022-12-26T06:33:44.048Z,115.78
2022-12-26T06:36:17.076Z,107.55
2022-12-26T06:38:44.635Z,119.30
2022-12-26T06:41:17.992Z,106.55
2022-12-26T06:43:45.917Z,114.75
2022-12-26T06:46:16.301Z,116.95
2022-12-26T06:48:43.971Z,116.82
2022-12-26T06:51:14.175Z,104.85
2022-12-26T06:53:42.009Z,110.32
2022-12-26T06:56:16.020Z,95.57
2022-12-26T06:58:43.707Z,112.10
2022-12-26T07:01:14.225Z,116.80
2022-12-26T07:03:50.476Z,113.13
2022-12-26T07:06:28.054Z,124.38
2022-12-26T07:09:01.175Z,114.30
2022-12-26T07:11:31.101Z,115.68
2022-12-26T07:13:58.875Z,127.55
2022-12-26T07:16:26.989Z,110.15
2022-12-26T07:18:58.852Z,125.47
2022-12-26T07:21:26.432Z,127.85
2022-12-26T07:23:55.277Z,110.07
2022-12-26T07:26:24.471Z,119.63
2022-12-26T07:28:56.565Z,108.22
2022-12-26T07:31:25.331Z,109.93
2022-12-26T07:33:54.595Z,94.90
2022-12-26T07:36:22.575Z,101.53
2022-12-26T07:38:49.913Z,108.28
2022-12-26T07:41:35.832Z,113.40
2022-12-26T07:44:04.011Z,108.35
2022-12-26T07:46:31.733Z,102.32
2022-12-26T07:48:59.168Z,100.28
2022-12-26T07:51:26.822Z,99.55
2022-12-26T07:53:54.319Z,98.55
2022-12-26T07:56:21.951Z,97.47
2022-12-26T07:58:50.337Z,103.15
2022-12-26T08:01:18.780Z,87.90
2022-12-26T08:03:49.453Z,91.80
2022-12-26T08:06:18.375Z,96.85
2022-12-26T08:08:51.175Z,98.80
2022-12-26T08:11:23.875Z,96.07
2022-12-26T08:13:52.257Z,100.28
2022-12-26T08:16:19.941Z,97.20
2022-12-26T08:18:47.440Z,88.38
2022-12-26T08:21:14.897Z,84.25
2022-12-26T08:23:42.414Z,91.95
2022-12-26T08:26:12.931Z,101.85
2022-12-26T08:28:42.559Z,96.80
2022-12-26T08:31:10.894Z,97.68
2022-12-26T08:33:38.358Z,93.68
2022-12-26T08:36:08.292Z,82.90
2022-12-26T08:38:36.663Z,92.50
2022-12-26T08:41:04.321Z,89.20
2022-12-26T08:44:03.640Z,85.53
2022-12-26T08:46:21.332Z,76.60
2022-12-26T08:48:50.161Z,78.70
2022-12-26T08:51:23.623Z,79.68
2022-12-26T08:53:53.081Z,84.22
2022-12-26T08:56:23.739Z,81.20
2022-12-26T08:58:51.146Z,78.18
2022-12-26T09:01:21.956Z,88.45
2022-12-26T09:03:53.697Z,91.93
2022-12-26T09:06:21.720Z,83.68
2022-12-26T09:08:49.320Z,90.35
2022-12-26T09:11:19.235Z,92.35
2022-12-26T09:13:47.219Z,90.78
2022-12-26T09:16:17.684Z,101.85
2022-12-26T09:18:46.247Z,92.80
2022-12-26T09:21:16.035Z,103.32
2022-12-26T09:23:44.084Z,97.80
2022-12-26T09:26:20.184Z,106.95
2022-12-26T09:28:47.728Z,97.68
2022-12-26T09:31:17.821Z,96.78
2022-12-26T09:33:47.259Z,102.35
2022-12-26T09:36:18.150Z,101.00
2022-12-26T09:38:47.183Z,102.55
2022-12-26T09:41:29.687Z,94.25
2022-12-26T09:44:21.886Z,79.05
2022-12-26T09:47:04.239Z,81.80
2022-12-26T09:49:44.053Z,71.10
2022-12-26T09:52:37.607Z,74.78
2022-12-26T09:55:35.840Z,73.07
2022-12-26T09:58:18.169Z,72.07
2022-12-26T10:00:56.073Z,62.28
2022-12-26T10:03:24.748Z,75.63
2022-12-26T10:06:00.985Z,60.20
2022-12-26T10:09:05.535Z,67.13
2022-12-26T10:11:45.050Z,69.57
2022-12-26T10:14:40.721Z,74.90
2022-12-26T10:17:26.606Z,75.47
2022-12-26T10:20:06.134Z,72.55
2022-12-26T10:22:41.518Z,78.40
2022-12-26T10:25:18.928Z,73.28
2022-12-26T10:27:49.948Z,78.07
2022-12-26T10:30:31.389Z,76.47
2022-12-26T10:33:04.729Z,78.35
2022-12-26T10:35:40.766Z,71.60
2022-12-26T10:38:32.507Z,77.97
2022-12-26T10:41:11.368Z,78.03
2022-12-26T10:43:44.817Z,97.00
2022-12-26T10:46:37.909Z,94.80
2022-12-26T10:49:08.123Z,85.75
2022-12-26T10:51:38.101Z,86.00
2022-12-26T10:54:14.840Z,89.32
2022-12-26T10:56:42.853Z,78.07
2022-12-26T10:59:16.750Z,86.05
2022-12-26T11:01:47.829Z,92.43
2022-12-26T11:04:44.402Z,85.63
2022-12-26T11:07:12.822Z,85.38
2022-12-26T11:09:43.941Z,83.10
2022-12-26T11:12:20.440Z,87.30
2022-12-26T11:14:48.170Z,84.70
2022-12-26T11:17:27.149Z,84.43
2022-12-26T11:20:26.317Z,75.82
2022-12-26T11:22:54.009Z,74.53
2022-12-26T11:25:35.118Z,76.57
2022-12-26T11:28:39.185Z,75.07
2022-12-26T11:31:18.517Z,79.72
2022-12-26T11:33:46.667Z,75.78
2022-12-26T11:36:26.275Z,74.47
2022-12-26T11:39:00.652Z,75.43
2022-12-26T11:41:36.624Z,81.72
2022-12-26T11:44:19.377Z,73.10
2022-12-26T11:47:00.457Z,83.15
2022-12-26T11:49:33.785Z,77.75
2022-12-26T11:52:22.821Z,82.75
2022-12-26T11:54:51.261Z,78.40
2022-12-26T11:57:20.456Z,78.32
2022-12-26T11:59:49.343Z,71.65
2022-12-26T12:02:26.161Z,75.90
2022-12-26T12:05:00.770Z,78.88
2022-12-26T12:07:59.583Z,83.30
2022-12-26T12:10:47.895Z,81.65
2022-12-26T12:13:38.581Z,82.82
2022-12-26T12:16:40.271Z,81.88
2022-12-26T12:19:36.013Z,81.20
2022-12-26T12:22:18.448Z,79.28
2022-12-26T12:25:03.865Z,77.93
2022-12-26T12:27:35.391Z,79.22
2022-12-26T12:30:02.738Z,77.30
2022-12-26T12:32:59.267Z,81.30
2022-12-26T12:35:48.556Z,85.38
2022-12-26T12:38:24.788Z,85.82
2022-12-26T12:41:04.322Z,84.60
2022-12-26T12:43:37.340Z,80.47
2022-12-26T12:46:23.041Z,75.10
2022-12-26T12:49:11.178Z,82.63
2022-12-26T12:51:52.459Z,74.03
2022-12-26T12:54:50.751Z,83.57
2022-12-26T12:57:27.273Z,76.10
2022-12-26T13:00:17.857Z,79.82
2022-12-26T13:03:10.448Z,72.55
2022-12-26T13:05:59.696Z,70.03
2022-12-26T13:08:37.327Z,64.25
2022-12-26T13:11:14.868Z,74.05
2022-12-26T13:13:54.325Z,68.70
2022-12-26T13:16:41.501Z,64.75
2022-12-26T13:19:24.444Z,70.47
2022-12-26T13:21:57.600Z,64.35
2022-12-26T13:24:40.673Z,69.97
2022-12-26T13:27:19.652Z,66.53
2022-12-26T13:29:48.914Z,69.30
2022-12-26T13:32:25.594Z,65.65
2022-12-26T13:34:55.455Z,66.05
2022-12-26T13:37:53.994Z,65.00
2022-12-26T13:40:27.529Z,70.40
2022-12-26T13:43:39.017Z,67.18
2022-12-26T13:46:38.358Z,67.18
2022-12-26T13:49:26.070Z,63.33
2022-12-26T13:51:55.965Z,67.72
2022-12-26T13:54:26.529Z,69.68
2022-12-26T13:57:20.874Z,72.32
2022-12-26T14:00:17.910Z,72.80
2022-12-26T14:05:48.032Z,74.80
2022-12-26T14:08:34.289Z,74.60
2022-12-26T14:11:23.168Z,77.68
2022-12-26T14:13:56.510Z,76.95
2022-12-26T14:16:29.716Z,74.95
2022-12-26T14:19:14.735Z,72.47
2022-12-26T14:22:01.076Z,71.05
2022-12-26T14:24:43.352Z,67.15
2022-12-26T14:27:20.254Z,68.05
2022-12-26T14:29:59.091Z,71.72
2022-12-26T14:32:37.165Z,69.28
2022-12-26T14:35:23.052Z,72.10
2022-12-26T14:37:58.849Z,67.18
2022-12-26T14:40:34.807Z,71.78
2022-12-26T14:43:11.427Z,71.38
2022-12-26T14:45:41.792Z,67.60
2022-12-26T14:48:15.273Z,70.55
2022-12-26T14:50:48.652Z,69.35
2022-12-26T14:53:25.045Z,75.07
2022-12-26T14:56:01.495Z,71.97
2022-12-26T14:58:31.635Z,66.55
2022-12-26T15:01:15.628Z,64.80
2022-12-26T15:04:15.017Z,72.32
2022-12-26T15:06:54.199Z,73.43
2022-12-26T15:09:36.548Z,76.57
2022-12-26T15:12:34.444Z,72.43
2022-12-26T15:15:32.802Z,74.55
2022-12-26T15:18:11.371Z,73.45
2022-12-26T15:20:44.730Z,70.45
2022-12-26T15:23:33.011Z,69.43
2022-12-26T15:26:33.418Z,70.85
2022-12-26T15:29:25.635Z,66.65
2022-12-26T15:32:13.165Z,71.25
2022-12-26T15:35:06.101Z,68.30
2022-12-26T15:37:54.457Z,74.78
2022-12-26T15:40:29.276Z,70.35
2022-12-26T15:43:17.928Z,69.38
2022-12-26T15:45:48.584Z,75.15
2022-12-26T15:49:00.798Z,70.28
2022-12-26T15:51:53.874Z,73.97
2022-12-26T15:54:41.454Z,71.28
2022-12-26T15:57:19.442Z,72.97
2022-12-26T15:59:59.769Z,75.35
2022-12-26T16:02:27.318Z,78.38
2022-12-26T16:05:23.522Z,77.22
2022-12-26T16:08:04.152Z,81.20
2022-12-26T16:10:34.022Z,83.00
2022-12-26T16:13:23.485Z,83.93
2022-12-26T16:15:56.375Z,81.60
2022-12-26T16:18:32.523Z,83.88
2022-12-26T16:21:22.936Z,71.40
2022-12-26T16:23:52.669Z,86.80
2022-12-26T16:26:26.904Z,83.28
2022-12-26T16:28:56.417Z,75.28
2022-12-26T16:31:26.501Z,80.78
2022-12-26T16:33:57.318Z,75.57
2022-12-26T16:36:29.182Z,78.38
2022-12-26T16:38:56.736Z,76.40
2022-12-26T16:41:26.646Z,74.65
2022-12-26T16:43:56.743Z,72.15
2022-12-26T16:46:28.929Z,81.35
2022-12-26T16:49:01.018Z,71.22
2022-12-26T16:54:15.621Z,74.80
2022-12-26T16:56:43.520Z,73.40
2022-12-26T16:59:18.353Z,79.95
2022-12-26T17:01:57.641Z,77.15
2022-12-26T17:04:27.693Z,79.80
2022-12-26T17:06:59.313Z,75.15
2022-12-26T17:09:29.620Z,74.18
2022-12-26T17:12:01.487Z,73.07
2022-12-26T17:14:33.419Z,76.90
2022-12-26T17:19:31.973Z,78.43
2022-12-26T17:22:28.706Z,83.97
2022-12-26T17:25:34.414Z,79.60
2022-12-26T17:28:07.724Z,87.15
2022-12-26T17:30:53.794Z,85.68
2022-12-26T17:33:27.173Z,85.60
2022-12-26T17:36:52.547Z,80.13
2022-12-26T17:38:50.825Z,78.13
2022-12-26T17:41:20.727Z,77.40
2022-12-26T17:43:48.981Z,81.85
2022-12-26T17:46:17.617Z,80.80
2022-12-26T17:48:45.237Z,75.63
2022-12-26T17:51:16.525Z,74.20
2022-12-26T17:53:49.469Z,79.13
2022-12-26T17:56:24.412Z,72.05
2022-12-26T17:58:52.250Z,71.05
2022-12-26T18:01:21.890Z,76.82
2022-12-26T18:03:52.067Z,80.43
2022-12-26T18:06:19.986Z,75.63
2022-12-26T18:08:47.577Z,78.90
2022-12-26T18:11:14.935Z,85.32
2022-12-26T18:13:44.358Z,80.40
2022-12-26T18:16:17.360Z,85.78
2022-12-26T18:18:46.655Z,83.25
2022-12-26T18:21:15.937Z,80.72
2022-12-26T18:23:43.465Z,72.00
2022-12-26T18:26:19.773Z,78.35
2022-12-26T18:28:49.988Z,83.78
2022-12-26T18:31:17.415Z,78.03
2022-12-26T18:33:44.848Z,80.50
2022-12-26T18:36:13.777Z,78.10
2022-12-26T18:38:41.555Z,77.75
2022-12-26T18:41:14.137Z,84.55
2022-12-26T18:43:41.550Z,79.80
2022-12-26T18:46:20.854Z,78.18
2022-12-26T18:48:48.967Z,79.70
2022-12-26T18:51:16.949Z,78.18
2022-12-26T18:53:44.369Z,79.55
2022-12-26T18:56:20.767Z,70.60
2022-12-26T18:58:54.088Z,82.93
2022-12-26T19:01:26.040Z,77.85
2022-12-26T19:03:54.043Z,83.13
2022-12-26T19:06:24.846Z,81.18
2022-12-26T19:08:52.376Z,81.05
2022-12-26T19:11:19.850Z,84.82
2022-12-26T19:13:47.237Z,74.82
2022-12-26T19:16:15.479Z,76.28
2022-12-26T19:18:42.866Z,75.50
2022-12-26T19:21:14.132Z,80.28
2022-12-26T19:23:42.346Z,82.57
2022-12-26T19:26:15.927Z,77.20
2022-12-26T19:28:43.385Z,83.28
2022-12-26T19:31:13.689Z,81.60
2022-12-26T19:33:41.087Z,82.28
2022-12-26T19:36:08.687Z,83.32
2022-12-26T19:38:36.317Z,86.22
2022-12-26T19:41:09.724Z,83.88
2022-12-26T19:43:37.990Z,76.13
2022-12-26T19:46:11.655Z,81.97
2022-12-26T19:48:39.636Z,77.70
2022-12-26T19:51:11.304Z,80.22
2022-12-26T19:53:40.640Z,84.80
2022-12-26T19:56:16.824Z,81.75
2022-12-26T19:58:45.552Z,78.97
2022-12-26T20:01:19.136Z,84.88
2022-12-26T20:03:47.458Z,83.03
2022-12-26T20:06:23.403Z,88.15
2022-12-26T20:08:52.112Z,79.95
2022-12-26T20:11:25.966Z,86.15
2022-12-26T20:13:53.722Z,83.22
2022-12-26T20:17:02.988Z,91.78
2022-12-26T20:19:11.300Z,81.22
2022-12-26T20:21:38.745Z,79.55
2022-12-26T20:24:06.269Z,85.18
2022-12-26T20:26:33.609Z,84.03
2022-12-26T20:29:01.898Z,77.82
2022-12-26T20:31:32.740Z,84.25
2022-12-26T20:34:00.310Z,85.18
2022-12-26T20:36:30.189Z,81.55
2022-12-26T20:39:00.420Z,81.03
2022-12-26T20:41:29.050Z,84.82
2022-12-26T20:43:57.079Z,81.88
2022-12-26T20:46:27.902Z,82.13
2022-12-26T20:48:55.735Z,76.53
2022-12-26T20:51:30.179Z,85.43
2022-12-26T20:54:03.107Z,82.25
2022-12-26T20:56:30.810Z,83.15
2022-12-26T20:58:59.698Z,82.65
2022-12-26T21:01:28.320Z,85.68
2022-12-26T21:03:57.228Z,82.70
2022-12-26T21:06:28.853Z,83.63
2022-12-26T21:08:57.635Z,90.60
2022-12-26T21:11:27.044Z,83.13
2022-12-26T21:13:59.238Z,80.97
2022-12-26T21:16:31.676Z,80.45
2022-12-26T21:18:59.250Z,80.97
2022-12-26T21:21:32.703Z,77.43
2022-12-26T21:24:07.039Z,78.60
2022-12-26T21:26:39.926Z,79.68
2022-12-26T21:29:10.736Z,92.93
2022-12-26T21:31:38.828Z,84.07
2022-12-26T21:34:06.237Z,81.15
2022-12-26T21:36:35.340Z,80.93
2022-12-26T21:39:10.149Z,79.80
2022-12-26T21:41:38.051Z,84.47
2022-12-26T21:44:05.454Z,82.60
2022-12-26T21:46:32.847Z,82.25
2022-12-26T21:49:01.180Z,81.97
2022-12-26T21:51:29.713Z,81.78
2022-12-26T21:54:16.924Z,83.32
2022-12-26T21:56:45.249Z,89.22
2022-12-26T21:59:30.895Z,85.68
2022-12-26T22:01:58.388Z,85.15
2022-12-26T22:04:26.252Z,78.20
2022-12-26T22:06:53.609Z,81.43
2022-12-26T22:09:21.695Z,83.60
2022-12-26T22:12:07.366Z,80.72
2022-12-26T22:14:34.696Z,84.20
2022-12-26T22:17:02.015Z,78.13
2022-12-26T22:19:29.475Z,79.25
2022-12-26T22:21:56.842Z,86.43
2022-12-26T22:24:24.836Z,85.60
2022-12-26T22:26:52.626Z,82.95
2022-12-26T22:29:20.053Z,82.43
2022-12-26T22:31:47.338Z,82.47
2022-12-26T22:34:16.789Z,80.03
2022-12-26T22:36:46.804Z,81.93
2022-12-26T22:39:17.091Z,82.50
2022-12-26T22:41:45.861Z,77.35
2022-12-26T22:44:14.906Z,79.90
2022-12-26T22:46:42.524Z,80.28
2022-12-26T22:49:10.105Z,79.35
2022-12-26T22:51:37.798Z,81.22
2022-12-26T22:54:05.674Z,81.43
2022-12-26T22:56:33.884Z,83.68
2022-12-26T22:59:02.155Z,80.72
2022-12-26T23:01:29.820Z,89.57
2022-12-26T23:03:57.768Z,86.18
2022-12-26T23:06:31.042Z,87.63
2022-12-26T23:09:01.065Z,89.07
2022-12-26T23:11:34.779Z,85.47
2022-12-26T23:14:05.254Z,80.90
2022-12-26T23:16:35.993Z,86.75
2022-12-26T23:19:38.979Z,88.20
2022-12-26T23:22:06.528Z,85.97
2022-12-26T23:24:34.233Z,85.38
2022-12-26T23:27:25.236Z,87.18
2022-12-26T23:30:13.767Z,82.57
2022-12-26T23:32:43.351Z,93.35
2022-12-26T23:35:12.337Z,84.22
2022-12-26T23:37:40.424Z,89.45
2022-12-26T23:40:09.555Z,92.20
2022-12-26T23:42:37.089Z,87.45
2022-12-26T23:45:05.290Z,82.70
2022-12-26T23:47:32.610Z,82.65
2022-12-26T23:50:00.001Z,87.38
2022-12-26T23:52:30.555Z,91.65
2022-12-26T23:54:58.520Z,88.78
2022-12-26T23:57:26.000Z,85.95
2022-12-26T23:59:53.495Z,89.00
